Time;durP1;ratioP1;P1;durP2;ratioP2;P2;SDS_P1;SDS_P2;PMS_P1;PMS_P2;Temp;Humidity;BMP_temperature;BMP_pressure;BME280_temperature;BME280_humidity;BME280_pressure;Samples;Min_cycle;Max_cycle;Signal;HPM_P1;HPM_P2
2022/09/03 00:00:54;;;;;;;8.52;5.00;;;24.00;64.50;;;;;;4927509;29;20035;-64
2022/09/03 00:03:50;;;;;;;10.27;6.05;;;23.90;64.60;;;;;;4920853;29;20055;-63
2022/09/03 00:06:37;;;;;;;10.55;5.40;;;23.90;64.60;;;;;;4921218;29;20055;-63
2022/09/03 00:09:27;;;;;;;9.15;5.43;;;23.90;64.60;;;;;;4926501;29;20024;-63
2022/09/03 00:12:17;;;;;;;10.23;5.30;;;23.90;64.60;;;;;;4927911;29;20559;-63
2022/09/03 00:14:45;;;;;;;8.82;5.13;;;23.90;64.60;;;;;;4908034;29;20122;-63
2022/09/03 00:17:16;;;;;;;7.78;5.40;;;23.90;64.60;;;;;;4921774;29;20670;-63
2022/09/03 00:19:53;;;;;;;10.48;5.10;;;23.80;64.50;;;;;;4919233;29;20086;-63
2022/09/03 00:22:28;;;;;;;7.68;5.13;;;23.80;64.70;;;;;;4919497;29;20087;-63
2022/09/03 00:24:54;;;;;;;9.43;5.28;;;23.80;64.60;;;;;;4929018;28;20046;-64
2022/09/03 00:27:22;;;;;;;7.95;5.20;;;23.80;64.60;;;;;;4970142;28;20034;-63
2022/09/03 00:29:52;;;;;;;7.90;5.00;;;23.80;64.70;;;;;;4994886;28;20034;-63
2022/09/03 00:32:42;;;;;;;9.25;5.32;;;23.80;64.70;;;;;;4999581;28;20446;-63
2022/09/03 00:35:13;;;;;;;7.65;4.90;;;23.80;64.70;;;;;;5000099;28;20064;-63
2022/09/03 00:37:40;;;;;;;8.43;5.30;;;23.80;64.70;;;;;;4996689;28;20045;-63
2022/09/03 00:40:09;;;;;;;8.73;5.18;;;23.80;64.70;;;;;;4984949;28;20058;-63
2022/09/03 00:42:42;;;;;;;9.65;5.28;;;23.80;64.70;;;;;;4980841;28;20030;-63
2022/09/03 00:45:20;;;;;;;8.32;5.00;;;23.80;64.80;;;;;;4973411;28;20084;-63
2022/09/03 00:48:16;;;;;;;7.97;4.95;;;23.70;64.70;;;;;;4983115;28;20026;-63
2022/09/03 00:51:00;;;;;;;9.15;5.30;;;23.80;64.80;;;;;;4984016;28;20026;-63
2022/09/03 00:53:44;;;;;;;8.95;5.00;;;23.70;64.70;;;;;;4983100;28;20034;-63
2022/09/03 00:56:49;;;;;;;8.68;5.20;;;23.70;64.80;;;;;;5000871;28;20050;-63
2022/09/03 00:59:33;;;;;;;8.32;5.03;;;23.70;64.80;;;;;;4986328;28;20030;-63
2022/09/03 01:02:02;;;;;;;8.82;5.03;;;23.70;64.90;;;;;;4987432;28;20108;-63
2022/09/03 01:04:48;;;;;;;8.10;5.32;;;23.70;65.90;;;;;;4985858;28;20188;-63
2022/09/03 01:07:20;;;;;;;9.65;5.30;;;23.70;64.80;;;;;;4995975;28;20022;-63
2022/09/03 01:10:17;;;;;;;7.95;5.10;;;23.70;64.90;;;;;;4986100;28;20026;-63
2022/09/03 01:12:53;;;;;;;8.30;4.93;;;23.70;65.90;;;;;;4986252;28;20038;-63
2022/09/03 01:15:43;;;;;;;8.25;4.97;;;23.70;64.90;;;;;;4986997;28;20057;-63
2022/09/03 01:18:27;;;;;;;9.48;5.18;;;23.70;64.90;;;;;;4998776;28;20109;-63
2022/09/03 01:21:08;;;;;;;8.35;5.00;;;23.70;64.90;;;;;;4989751;28;20093;-63
2022/09/03 01:23:37;;;;;;;7.93;4.95;;;23.70;64.90;;;;;;4987507;28;20159;-63
2022/09/03 01:26:26;;;;;;;9.68;4.78;;;23.70;64.90;;;;;;4985520;28;20529;-63
2022/09/03 01:28:55;;;;;;;7.07;4.75;;;23.60;64.90;;;;;;5001627;28;20499;-63
2022/09/03 01:31:36;;;;;;;7.38;4.90;;;23.60;64.90;;;;;;4986907;28;20042;-63
2022/09/03 01:34:21;;;;;;;7.47;4.78;;;23.60;64.90;;;;;;4984321;28;20026;-63
2022/09/03 01:37:00;;;;;;;7.53;4.75;;;23.60;64.90;;;;;;4973590;28;20105;-63
2022/09/03 01:39:42;;;;;;;7.90;5.15;;;23.60;64.90;;;;;;4985417;28;20093;-63
2022/09/03 01:42:26;;;;;;;9.13;4.85;;;23.60;64.80;;;;;;4989090;28;21540;-63
2022/09/03 01:44:56;;;;;;;7.15;4.70;;;23.60;64.90;;;;;;4985188;28;20113;-63
2022/09/03 01:47:48;;;;;;;7.00;4.55;;;23.60;64.90;;;;;;4985643;28;20425;-63
2022/09/03 01:50:38;;;;;;;7.93;4.88;;;23.60;64.90;;;;;;4987917;28;20076;-63
2022/09/03 01:53:26;;;;;;;6.55;4.63;;;23.50;64.90;;;;;;4987632;28;20023;-63
2022/09/03 01:56:05;;;;;;;8.38;5.05;;;23.60;64.90;;;;;;4987548;28;20057;-63
2022/09/03 01:58:41;;;;;;;7.28;4.43;;;23.60;64.90;;;;;;4985973;28;20046;-63
2022/09/03 02:01:15;;;;;;;8.85;5.32;;;23.60;65.00;;;;;;4986211;28;20077;-63
2022/09/03 02:03:43;;;;;;;8.10;4.70;;;23.60;64.90;;;;;;4985166;28;20264;-63
2022/09/03 02:06:09;;;;;;;7.57;4.70;;;23.50;64.90;;;;;;4985283;28;20042;-63
2022/09/03 02:08:35;;;;;;;6.80;4.57;;;23.50;64.90;;;;;;5000739;28;20031;-63
2022/09/03 02:11:02;;;;;;;6.70;4.53;;;23.50;64.90;;;;;;4985839;28;20550;-63
2022/09/03 02:13:39;;;;;;;8.57;4.78;;;23.50;65.00;;;;;;4998584;28;20033;-63
2022/09/03 02:16:20;;;;;;;7.55;4.43;;;23.50;64.90;;;;;;4983303;28;20031;-63
2022/09/03 02:19:00;;;;;;;7.55;4.70;;;23.50;64.90;;;;;;5000493;28;20050;-63
2022/09/03 02:21:26;;;;;;;7.35;4.70;;;23.50;64.90;;;;;;4998360;28;20053;-63
2022/09/03 02:23:52;;;;;;;7.68;4.50;;;23.50;64.90;;;;;;4968849;28;20457;-63
2022/09/03 02:26:21;;;;;;;6.95;4.43;;;23.50;64.90;;;;;;5000921;28;20030;-62
2022/09/03 02:28:47;;;;;;;7.95;4.85;;;23.50;66.00;;;;;;5002786;28;20514;-63
2022/09/03 02:31:13;;;;;;;6.65;4.45;;;23.50;64.90;;;;;;5003612;28;20026;-63
2022/09/03 02:33:40;;;;;;;7.03;4.47;;;23.50;65.00;;;;;;4985927;28;20642;-63
2022/09/03 02:36:07;;;;;;;7.60;4.18;;;23.50;64.90;;;;;;5002811;28;20030;-63
2022/09/03 02:38:33;;;;;;;7.18;4.70;;;23.50;64.90;;;;;;4983410;28;20019;-63
2022/09/03 02:40:59;;;;;;;6.85;4.63;;;23.40;64.90;;;;;;4983529;28;20040;-63
2022/09/03 02:43:48;;;;;;;6.82;4.53;;;23.40;64.90;;;;;;4983942;28;20034;-63
2022/09/03 02:46:19;;;;;;;6.85;4.40;;;23.40;64.90;;;;;;4983670;28;20053;-63
2022/09/03 02:48:45;;;;;;;7.10;4.50;;;23.40;65.00;;;;;;4985591;28;20030;-63
2022/09/03 02:51:11;;;;;;;8.00;4.55;;;23.40;64.90;;;;;;4987221;28;20646;-63
2022/09/03 02:53:36;;;;;;;6.63;4.30;;;23.40;65.00;;;;;;4984107;28;20041;-63
2022/09/03 02:56:02;;;;;;;6.72;4.20;;;23.40;65.00;;;;;;4982916;28;20030;-63
2022/09/03 02:58:28;;;;;;;8.13;4.35;;;23.40;65.00;;;;;;4985519;28;20053;-63
2022/09/03 03:00:54;;;;;;;6.50;4.40;;;23.40;65.00;;;;;;4982758;28;20474;-63
2022/09/03 03:03:19;;;;;;;6.45;4.00;;;23.40;65.00;;;;;;4985240;28;20117;-63
2022/09/03 03:05:54;;;;;;;6.25;4.20;;;23.30;65.00;;;;;;4984157;28;20038;-62
2022/09/03 03:08:20;;;;;;;;;;;23.40;65.00;;;;;;4999272;28;20072;-64
2022/09/03 03:10:48;;;;;;;8.30;4.57;;;23.30;65.10;;;;;;4983680;28;20349;-63
2022/09/03 03:13:15;;;;;;;7.07;4.50;;;23.40;65.10;;;;;;4983712;28;20501;-63
2022/09/03 03:15:40;;;;;;;6.50;4.40;;;23.30;65.10;;;;;;4984238;28;20064;-64
2022/09/03 03:18:06;;;;;;;6.63;4.45;;;23.30;65.00;;;;;;4986661;28;20058;-63
2022/09/03 03:20:33;;;;;;;6.75;4.43;;;23.30;65.10;;;;;;4979485;28;20110;-63
2022/09/03 03:23:01;;;;;;;7.22;4.28;;;23.40;65.10;;;;;;4985531;28;20486;-64
2022/09/03 03:25:26;;;;;;;7.50;4.28;;;23.30;65.10;;;;;;4981748;28;20442;-63
2022/09/03 03:27:55;;;;;;;7.47;4.20;;;23.30;65.10;;;;;;4985534;28;20026;-63
2022/09/03 03:30:22;;;;;;;6.95;4.40;;;23.30;65.00;;;;;;4983574;28;20496;-63
2022/09/03 03:32:47;;;;;;;5.72;3.92;;;23.30;65.10;;;;;;4985148;28;20542;-63
2022/09/03 03:35:13;;;;;;;6.57;4.38;;;23.30;65.10;;;;;;4987188;28;20105;-63
2022/09/03 03:37:39;;;;;;;6.18;4.20;;;23.30;65.10;;;;;;4983730;28;20038;-63
2022/09/03 03:40:06;;;;;;;5.85;4.22;;;23.30;65.00;;;;;;4985233;28;20032;-63
2022/09/03 03:42:34;;;;;;;7.15;4.10;;;23.30;65.20;;;;;;4998268;28;20031;-63
2022/09/03 03:45:01;;;;;;;7.47;4.55;;;23.30;65.10;;;;;;4983728;28;20384;-63
2022/09/03 03:47:29;;;;;;;8.38;4.50;;;23.30;65.10;;;;;;4985979;28;20041;-63
2022/09/03 03:49:58;;;;;;;6.55;4.20;;;23.30;65.10;;;;;;4983792;28;20026;-63
2022/09/03 03:52:24;;;;;;;7.43;4.22;;;23.20;65.10;;;;;;4985561;28;20105;-62
2022/09/03 03:54:50;;;;;;;5.90;4.00;;;23.30;65.10;;;;;;4984046;28;20459;-63
2022/09/03 03:57:18;;;;;;;6.80;4.35;;;23.20;65.10;;;;;;4984328;28;20105;-63
2022/09/03 03:59:44;;;;;;;7.25;4.10;;;23.20;65.10;;;;;;4985355;28;20030;-63
2022/09/03 04:02:09;;;;;;;6.63;4.28;;;23.30;65.10;;;;;;4982022;28;20092;-63
2022/09/03 04:04:35;;;;;;;6.47;4.20;;;23.20;65.10;;;;;;4986098;28;20038;-63
2022/09/03 04:07:01;;;;;;;6.55;4.30;;;23.20;65.10;;;;;;4982022;28;20118;-63
2022/09/03 04:09:26;;;;;;;6.50;4.25;;;23.20;65.10;;;;;;4986813;28;20117;-63
2022/09/03 04:11:52;;;;;;;5.88;4.10;;;23.20;65.10;;;;;;4983983;28;20026;-63
2022/09/03 04:14:18;;;;;;;6.05;4.00;;;23.20;65.20;;;;;;4982922;28;20558;-63
2022/09/03 04:16:45;;;;;;;6.50;3.97;;;23.20;65.20;;;;;;4984573;28;20027;-63
2022/09/03 04:19:11;;;;;;;6.63;4.25;;;23.20;65.20;;;;;;4983847;28;20538;-63
2022/09/03 04:21:37;;;;;;;5.57;3.78;;;23.20;65.20;;;;;;4987278;28;20018;-63
2022/09/03 04:24:03;;;;;;;6.85;4.20;;;23.20;65.20;;;;;;5000129;28;20030;-63
2022/09/03 04:26:32;;;;;;;6.72;4.15;;;23.20;65.20;;;;;;4984060;28;20109;-62
2022/09/03 04:28:59;;;;;;;7.10;4.10;;;23.10;65.10;;;;;;4987968;28;20509;-63
2022/09/03 04:31:25;;;;;;;6.72;4.30;;;23.20;65.20;;;;;;4989029;28;20038;-63
2022/09/03 04:33:51;;;;;;;7.30;4.28;;;23.10;65.10;;;;;;4987827;28;20041;-63
2022/09/03 04:36:22;;;;;;;6.30;4.20;;;23.20;65.20;;;;;;4984762;28;21009;-63
2022/09/03 04:38:50;;;;;;;6.07;4.05;;;23.10;65.10;;;;;;4986831;28;20034;-63
2022/09/03 04:41:27;;;;;;;6.40;4.35;;;23.10;65.10;;;;;;4984185;28;20026;-63
2022/09/03 04:43:54;;;;;;;7.50;4.13;;;23.10;65.10;;;;;;4985231;28;20025;-63
2022/09/03 04:46:20;;;;;;;6.25;3.88;;;23.10;65.10;;;;;;5004058;28;20033;-63
2022/09/03 04:48:47;;;;;;;6.30;3.95;;;23.10;65.20;;;;;;4987690;28;20022;-63
2022/09/03 04:51:14;;;;;;;6.93;4.13;;;23.10;66.20;;;;;;4984865;28;20134;-63
2022/09/03 04:53:41;;;;;;;6.07;3.92;;;23.10;65.20;;;;;;4985393;28;20026;-63
2022/09/03 04:56:18;;;;;;;6.32;4.03;;;23.10;65.20;;;;;;4987933;28;20129;-63
2022/09/03 04:58:43;;;;;;;5.90;3.92;;;23.10;65.20;;;;;;4986190;28;20038;-63
2022/09/03 05:01:15;;;;;;;7.15;4.10;;;23.10;65.20;;;;;;4988690;28;20023;-62
2022/09/03 05:03:40;;;;;;;5.63;3.63;;;23.10;65.20;;;;;;5003058;28;20034;-63
2022/09/03 05:06:07;;;;;;;5.95;3.95;;;23.10;65.20;;;;;;4986592;28;20060;-63
2022/09/03 05:08:35;;;;;;;5.97;3.88;;;23.10;65.20;;;;;;4987815;28;20034;-63
2022/09/03 05:11:04;;;;;;;5.88;3.95;;;23.10;65.20;;;;;;4986589;28;20061;-63
2022/09/03 05:13:29;;;;;;;7.28;4.10;;;23.10;65.20;;;;;;4986565;28;20061;-63
2022/09/03 05:16:06;;;;;;;7.03;3.90;;;23.10;65.20;;;;;;4981780;28;20077;-63
2022/09/03 05:18:32;;;;;;;6.07;3.83;;;23.10;65.20;;;;;;4987382;28;20043;-63
2022/09/03 05:21:09;;;;;;;5.97;4.13;;;23.10;65.20;;;;;;4986353;28;20185;-63
2022/09/03 05:23:41;;;;;;;5.90;4.07;;;23.10;65.20;;;;;;5000921;28;20045;-63
2022/09/03 05:26:08;;;;;;;7.00;3.97;;;23.00;65.20;;;;;;4985739;28;20047;-63
2022/09/03 05:28:35;;;;;;;6.13;4.10;;;23.00;65.20;;;;;;4990137;28;20026;-63
2022/09/03 05:31:05;;;;;;;6.03;3.70;;;23.00;65.20;;;;;;4986903;28;20022;-63
2022/09/03 05:33:35;;;;;;;5.90;4.05;;;23.00;65.20;;;;;;4978111;28;20034;-63
2022/09/03 05:36:01;;;;;;;5.68;3.78;;;23.00;65.20;;;;;;4987342;28;20019;-63
2022/09/03 05:38:27;;;;;;;5.85;3.85;;;23.00;65.20;;;;;;4989287;28;20109;-63
2022/09/03 05:40:53;;;;;;;6.10;4.00;;;23.00;65.20;;;;;;4986677;28;20129;-63
2022/09/03 05:43:19;;;;;;;6.40;3.92;;;23.00;65.20;;;;;;4986682;28;20454;-63
2022/09/03 05:45:45;;;;;;;6.13;3.90;;;23.00;65.20;;;;;;4984763;28;20129;-63
2022/09/03 05:48:11;;;;;;;5.97;3.88;;;23.00;65.20;;;;;;4986915;28;20113;-63
2022/09/03 05:50:36;;;;;;;5.47;3.70;;;23.00;65.20;;;;;;4986497;28;20023;-63
2022/09/03 05:53:02;;;;;;;6.32;3.90;;;23.00;65.20;;;;;;4989035;28;20042;-63
2022/09/03 05:55:27;;;;;;;5.97;3.83;;;23.00;65.20;;;;;;4988651;28;20022;-63
2022/09/03 05:57:53;;;;;;;5.68;3.83;;;23.00;65.20;;;;;;4984716;28;20046;-63
2022/09/03 06:00:19;;;;;;;6.72;3.90;;;23.00;65.20;;;;;;4987755;28;20077;-63
2022/09/03 06:02:54;;;;;;;7.22;4.13;;;23.00;65.20;;;;;;5001702;28;20548;-63
2022/09/03 06:05:20;;;;;;;5.45;3.70;;;22.90;65.20;;;;;;4984832;28;20046;-63
2022/09/03 06:07:48;;;;;;;5.53;3.55;;;22.90;65.10;;;;;;4985560;28;20077;-63
2022/09/03 06:10:16;;;;;;;6.00;3.72;;;22.90;65.10;;;;;;4983000;28;20117;-63
2022/09/03 06:12:48;;;;;;;5.90;3.92;;;22.90;65.20;;;;;;4987608;28;20058;-63
2022/09/03 06:15:14;;;;;;;6.03;4.00;;;23.00;65.20;;;;;;4982577;28;20053;-63
2022/09/03 06:17:40;;;;;;;6.22;4.00;;;22.90;65.10;;;;;;4987042;28;20026;-63
2022/09/03 06:20:06;;;;;;;5.63;3.67;;;22.90;65.10;;;;;;4989420;28;20136;-63
2022/09/03 06:22:31;;;;;;;7.03;4.05;;;22.90;65.20;;;;;;4990447;28;20022;-63
2022/09/03 06:24:57;;;;;;;6.57;3.60;;;22.90;65.10;;;;;;4996821;28;20044;-63
2022/09/03 06:27:23;;;;;;;5.68;3.72;;;22.90;65.10;;;;;;4989481;28;20050;-63
2022/09/03 06:29:48;;;;;;;6.57;3.65;;;22.90;65.10;;;;;;4988647;28;20038;-63
2022/09/03 06:32:14;;;;;;;6.15;3.63;;;22.90;65.10;;;;;;4987748;28;20018;-63
2022/09/03 06:34:40;;;;;;;6.10;3.97;;;22.90;65.10;;;;;;4989648;28;20476;-63
2022/09/03 06:37:06;;;;;;;5.60;3.80;;;22.90;65.10;;;;;;4986225;28;20125;-63
2022/09/03 06:39:31;;;;;;;6.57;3.60;;;22.90;65.20;;;;;;4986028;28;20454;-63
2022/09/03 06:41:57;;;;;;;7.38;3.90;;;22.90;65.20;;;;;;4985453;28;20486;-63
2022/09/03 06:44:23;;;;;;;6.25;3.80;;;22.90;65.10;;;;;;4984995;28;20052;-63
2022/09/03 06:46:49;;;;;;;5.60;3.72;;;22.90;65.10;;;;;;4982870;28;20070;-63
2022/09/03 06:49:14;;;;;;;6.53;3.85;;;22.90;65.10;;;;;;4986908;28;20046;-63
2022/09/03 06:51:42;;;;;;;6.35;3.80;;;22.90;65.20;;;;;;4985224;28;20442;-63
2022/09/03 06:54:09;;;;;;;5.25;3.50;;;22.90;65.10;;;;;;4982775;28;20039;-63
2022/09/03 06:56:35;;;;;;;6.50;3.63;;;22.80;65.20;;;;;;4984576;28;20403;-63
2022/09/03 06:59:06;;;;;;;5.72;3.85;;;22.90;65.10;;;;;;4985397;28;20042;-63
2022/09/03 07:01:32;;;;;;;6.30;3.80;;;22.80;65.10;;;;;;4999015;28;20034;-63
2022/09/03 07:03:59;;;;;;;6.07;3.85;;;22.80;65.00;;;;;;4984596;28;20522;-63
2022/09/03 07:06:26;;;;;;;6.57;3.85;;;22.80;65.10;;;;;;4984967;28;20045;-63
2022/09/03 07:08:53;;;;;;;6.53;3.90;;;22.80;65.00;;;;;;4982480;28;20101;-63
2022/09/03 07:11:22;;;;;;;7.07;4.20;;;22.80;65.00;;;;;;4987095;28;20542;-63
2022/09/03 07:13:49;;;;;;;5.72;3.63;;;22.80;65.00;;;;;;4986009;28;20109;-63
2022/09/03 07:16:16;;;;;;;6.68;3.65;;;22.80;65.10;;;;;;4982602;28;20030;-63
2022/09/03 07:18:42;;;;;;;6.22;3.75;;;22.80;65.00;;;;;;4982994;28;20043;-63
2022/09/03 07:21:19;;;;;;;6.47;3.88;;;22.80;65.00;;;;;;4985268;28;20047;-63
2022/09/03 07:23:45;;;;;;;6.28;3.92;;;22.80;65.10;;;;;;4983743;28;20458;-63
2022/09/03 07:26:15;;;;;;;6.47;3.90;;;22.80;65.00;;;;;;4984988;28;20038;-63
2022/09/03 07:28:42;;;;;;;7.80;4.20;;;22.80;65.10;;;;;;4986522;28;20031;-62
2022/09/03 07:31:24;;;;;;;6.15;3.70;;;22.80;65.00;;;;;;4979425;28;20109;-62
2022/09/03 07:33:54;;;;;;;11.77;6.13;;;22.80;65.00;;;;;;4975526;28;20118;-62
2022/09/03 07:36:20;;;;;;;12.93;6.90;;;22.80;64.30;;;;;;4997856;28;20026;-63
2022/09/03 07:38:46;;;;;;;14.52;7.05;;;22.80;64.40;;;;;;4977784;28;20030;-62
2022/09/03 07:41:13;;;;;;;15.30;6.70;;;22.80;64.10;;;;;;4984110;28;20044;-62
2022/09/03 07:43:42;;;;;;;15.25;6.90;;;22.70;64.10;;;;;;4983174;28;20456;-63
2022/09/03 07:46:11;;;;;;;12.77;6.20;;;22.70;63.80;;;;;;4979882;28;20439;-62
2022/09/03 07:48:39;;;;;;;12.57;6.00;;;22.70;63.60;;;;;;4985096;28;20026;-61
2022/09/03 07:51:04;;;;;;;11.88;5.70;;;22.60;63.10;;;;;;4983839;28;20050;-61
2022/09/03 07:53:30;;;;;;;13.85;5.97;;;22.60;62.80;;;;;;4985425;28;20487;-62
2022/09/03 07:56:06;;;;;;;12.05;5.88;;;22.60;62.80;;;;;;4983744;28;20030;-61
2022/09/03 07:58:33;;;;;;;11.98;5.40;;;22.50;62.60;;;;;;4980489;28;20106;-61
2022/09/03 08:01:04;;;;;;;10.85;5.63;;;22.60;62.90;;;;;;4981135;28;20058;-62
2022/09/03 08:03:31;;;;;;;10.52;5.10;;;22.60;63.30;;;;;;4981061;28;20038;-61
2022/09/03 08:06:03;;;;;;;11.80;5.20;;;22.60;63.60;;;;;;4980872;28;20045;-61
2022/09/03 08:08:29;;;;;;;9.85;4.95;;;22.60;63.80;;;;;;4978552;28;20153;-61
2022/09/03 08:10:57;;;;;;;10.63;5.30;;;22.70;63.90;;;;;;4981899;28;20039;-62
2022/09/03 08:13:33;;;;;;;10.75;4.80;;;22.60;63.90;;;;;;4982222;28;20030;-61
2022/09/03 08:16:00;;;;;;;10.65;5.35;;;22.70;63.90;;;;;;4977186;28;20038;-61
2022/09/03 08:18:26;;;;;;;12.60;5.20;;;22.70;63.90;;;;;;4980902;28;20034;-61
2022/09/03 08:20:51;;;;;;;10.48;5.20;;;22.80;63.90;;;;;;4984132;28;20439;-61
2022/09/03 08:23:17;;;;;;;13.07;5.35;;;22.70;63.30;;;;;;4979428;28;20041;-62
2022/09/03 08:25:43;;;;;;;13.27;4.97;;;22.70;62.20;;;;;;4981031;28;20049;-62
2022/09/03 08:28:09;;;;;;;11.63;4.90;;;22.70;62.20;;;;;;4984610;28;20090;-63
2022/09/03 08:30:35;;;;;;;17.08;5.15;;;22.70;62.50;;;;;;4984040;28;20051;-62
2022/09/03 08:33:06;;;;;;;9.52;4.05;;;22.60;62.00;;;;;;4983143;28;20507;-62
2022/09/03 08:35:33;;;;;;;10.35;4.00;;;22.50;62.20;;;;;;5007588;28;20120;-62
2022/09/03 08:38:04;;;;;;;10.52;4.10;;;22.50;62.30;;;;;;4989556;28;20089;-62
2022/09/03 08:40:34;;;;;;;10.15;4.22;;;22.50;62.20;;;;;;4985168;28;20521;-61
2022/09/03 08:43:05;;;;;;;9.60;3.60;;;22.50;62.30;;;;;;5001041;28;20128;-63
2022/09/03 08:45:30;;;;;;;9.82;4.00;;;22.50;62.10;;;;;;4996666;28;20034;-62
2022/09/03 08:48:27;;;;;;;10.60;3.45;;;22.40;61.60;;;;;;5000907;28;20030;-61
2022/09/03 08:50:57;;;;;;;10.02;3.33;;;22.50;62.00;;;;;;4980550;28;20050;-62
2022/09/03 08:53:50;;;;;;;10.30;3.22;;;22.50;62.10;;;;;;4990363;28;20034;-62
2022/09/03 08:56:37;;;;;;;9.98;2.97;;;22.50;61.40;;;;;;4989995;28;20552;-62
2022/09/03 08:59:06;;;;;;;10.00;3.10;;;22.40;61.00;;;;;;4986376;28;20031;-62
2022/09/03 09:01:51;;;;;;;8.55;3.00;;;22.40;61.10;;;;;;4979338;28;20018;-62
2022/09/03 09:04:42;;;;;;;8.95;2.55;;;22.40;61.10;;;;;;5003901;28;20130;-62
2022/09/03 09:07:27;;;;;;;9.07;3.22;;;22.40;62.00;;;;;;5008432;28;20097;-62
2022/09/03 09:10:04;;;;;;;9.32;2.72;;;22.40;61.10;;;;;;5003391;28;20438;-62
2022/09/03 09:12:33;;;;;;;8.65;3.00;;;22.40;60.80;;;;;;4983589;28;20037;-62
2022/09/03 09:15:29;;;;;;;10.50;2.70;;;22.30;60.70;;;;;;5002621;28;20022;-62
2022/09/03 09:18:18;;;;;;;9.43;3.10;;;22.30;60.60;;;;;;4991115;28;20053;-62
2022/09/03 09:20:48;;;;;;;8.45;2.40;;;22.30;60.50;;;;;;4997785;28;20054;-62
2022/09/03 09:23:24;;;;;;;6.32;2.75;;;22.30;60.80;;;;;;4992548;28;20026;-62
2022/09/03 09:25:50;;;;;;;8.60;2.53;;;22.40;60.70;;;;;;4988529;28;20059;-67
2022/09/03 09:28:23;;;;;;;7.38;2.63;;;22.40;60.70;;;;;;4987873;28;20105;-67
2022/09/03 09:30:51;;;;;;;7.32;2.38;;;22.40;60.80;;;;;;4986051;28;20106;-67
2022/09/03 09:33:17;;;;;;;7.88;2.85;;;22.40;61.00;;;;;;4981220;28;20030;-67
2022/09/03 09:35:43;;;;;;;7.85;2.40;;;22.40;61.00;;;;;;4987946;28;20054;-68
2022/09/03 09:38:09;;;;;;;9.35;2.75;;;22.40;60.90;;;;;;4990497;28;20545;-67
2022/09/03 09:40:37;;;;;;;6.97;2.40;;;22.40;60.60;;;;;;5005444;28;20035;-67
2022/09/03 09:43:14;;;;;;;7.60;2.17;;;22.40;59.90;;;;;;4987411;28;20502;-67
2022/09/03 09:45:51;;;;;;;8.05;2.53;;;22.30;59.80;;;;;;4993737;28;20042;-67
2022/09/03 09:48:31;;;;;;;8.30;2.47;;;22.30;59.70;;;;;;4983369;28;20030;-67
2022/09/03 09:51:16;;;;;;;8.38;2.25;;;22.30;59.60;;;;;;4994070;28;20038;-67
2022/09/03 09:53:43;;;;;;;8.60;2.30;;;22.30;59.60;;;;;;4991936;28;20030;-67
2022/09/03 09:56:20;;;;;;;6.80;2.13;;;22.30;59.50;;;;;;4987317;28;20030;-67
2022/09/03 09:58:46;;;;;;;6.72;2.10;;;22.30;59.40;;;;;;5005744;28;20770;-67
2022/09/03 10:01:17;;;;;;;8.18;2.47;;;22.20;59.80;;;;;;4993463;28;20026;-67
2022/09/03 10:03:56;;;;;;;7.50;2.50;;;22.20;59.60;;;;;;4986245;28;20481;-67
2022/09/03 10:09:07;;;;;;;7.65;2.25;;;22.20;59.70;;;;;;4984312;28;20085;-67
2022/09/03 10:11:35;;;;;;;8.43;2.28;;;22.20;59.50;;;;;;4985441;28;20041;-67
2022/09/03 10:14:04;;;;;;;9.27;2.55;;;22.20;59.40;;;;;;4988116;28;20640;-67
2022/09/03 10:16:38;;;;;;;10.35;2.22;;;22.20;59.20;;;;;;4988789;28;20050;-67
2022/09/03 10:19:29;;;;;;;7.68;2.35;;;22.30;59.40;;;;;;4981791;28;20072;-65
2022/09/03 10:22:06;;;;;;;11.38;2.80;;;22.30;59.60;;;;;;4984225;28;20049;-68
2022/09/03 10:24:44;;;;;;;10.90;2.90;;;22.40;59.70;;;;;;4967163;28;20038;-68
2022/09/03 10:27:15;;;;;;;10.60;2.60;;;22.40;59.40;;;;;;4986869;28;20066;-67
2022/09/03 10:29:41;;;;;;;10.98;2.80;;;22.40;59.10;;;;;;4987375;28;20498;-68
2022/09/03 10:32:10;;;;;;;10.50;2.60;;;22.40;58.50;;;;;;4990059;28;20149;-66
2022/09/03 10:34:52;;;;;;;7.95;2.33;;;22.40;58.60;;;;;;4982450;28;20030;-67
2022/09/03 10:37:28;;;;;;;8.25;2.55;;;22.50;58.80;;;;;;5000499;28;20046;-67
2022/09/03 10:40:06;;;;;;;8.75;2.35;;;22.50;59.00;;;;;;5000393;28;20026;-67
2022/09/03 10:42:47;;;;;;;7.97;2.28;;;22.50;59.10;;;;;;4986914;28;20388;-67
2022/09/03 10:45:23;;;;;;;10.02;2.25;;;22.50;58.80;;;;;;4979360;28;20573;-68
2022/09/03 10:48:26;;;;;;;8.88;2.17;;;22.40;58.50;;;;;;4983379;28;20030;-68
2022/09/03 10:50:55;;;;;;;6.63;2.20;;;22.40;58.80;;;;;;4997195;28;20180;-68
2022/09/03 10:53:34;;;;;;;6.68;2.30;;;22.50;58.90;;;;;;4994823;28;20030;-68
2022/09/03 10:56:21;;;;;;;7.22;2.50;;;22.50;59.40;;;;;;4998217;28;20034;-69
2022/09/03 10:59:09;;;;;;;7.95;2.10;;;22.60;59.50;;;;;;4988197;28;20684;-67
2022/09/03 11:01:58;;;;;;;9.90;2.10;;;22.60;59.70;;;;;;4995148;28;20092;-67
2022/09/03 11:04:39;;;;;;;8.45;2.28;;;22.70;59.60;;;;;;4982136;28;20054;-67
2022/09/03 11:07:08;;;;;;;6.78;2.28;;;22.70;59.70;;;;;;4985735;28;20030;-68
2022/09/03 11:09:52;;;;;;;8.25;2.28;;;22.70;59.40;;;;;;5001974;28;20022;-68
2022/09/03 11:12:22;;;;;;;8.00;2.30;;;22.80;59.70;;;;;;4970278;28;20042;-67
2022/09/03 11:15:06;;;;;;;7.55;2.13;;;22.90;59.60;;;;;;4998922;28;20053;-67
2022/09/03 11:17:38;;;;;;;8.38;2.42;;;22.90;59.60;;;;;;4983795;28;20029;-65
2022/09/03 11:20:13;;;;;;;6.55;2.20;;;22.90;59.50;;;;;;4985852;28;20192;-67
2022/09/03 11:22:40;;;;;;;6.32;2.10;;;23.00;59.80;;;;;;4986436;28;20066;-66
2022/09/03 11:25:06;;;;;;;5.80;2.00;;;23.00;59.70;;;;;;4984652;28;20089;-65
2022/09/03 11:27:41;;;;;;;5.25;2.20;;;23.00;59.70;;;;;;5001281;28;20099;-68
2022/09/03 11:30:13;;;;;;;5.63;2.13;;;23.00;59.50;;;;;;4982621;28;20030;-67
2022/09/03 11:32:41;;;;;;;7.13;2.40;;;23.00;59.80;;;;;;4998790;28;20390;-68
2022/09/03 11:35:15;;;;;;;7.03;2.35;;;23.10;60.00;;;;;;4980790;28;20026;-68
2022/09/03 11:38:01;;;;;;;8.23;2.20;;;23.10;60.10;;;;;;4982778;28;20034;-68
2022/09/03 11:40:33;;;;;;;8.07;2.25;;;23.20;60.00;;;;;;4984711;28;20037;-68
2022/09/03 11:43:26;;;;;;;5.90;1.90;;;23.20;60.00;;;;;;4986233;28;20018;-63
2022/09/03 11:46:26;;;;;;;8.40;2.50;;;23.20;59.90;;;;;;5000155;28;20125;-69
2022/09/03 11:48:57;;;;;;;5.82;2.13;;;23.10;59.60;;;;;;4988237;28;20396;-68
2022/09/03 11:51:25;;;;;;;6.05;2.40;;;23.10;59.40;;;;;;4982406;28;20026;-69
2022/09/03 11:54:22;;;;;;;6.10;2.00;;;23.10;59.60;;;;;;4981370;28;20035;-69
2022/09/03 11:56:49;;;;;;;6.18;1.95;;;23.10;59.60;;;;;;4981265;28;20046;-69
2022/09/03 11:59:25;;;;;;;7.95;2.13;;;23.00;59.50;;;;;;4998763;28;20076;-68
2022/09/03 12:01:57;;;;;;;6.60;2.17;;;23.00;59.10;;;;;;5008216;28;20034;-68
2022/09/03 12:04:41;;;;;;;7.60;2.40;;;23.00;58.90;;;;;;4987310;28;20446;-70
2022/09/03 12:07:11;;;;;;;6.22;2.05;;;23.00;59.00;;;;;;4986212;28;20026;-69
2022/09/03 12:09:50;;;;;;;7.75;2.30;;;23.10;59.10;;;;;;4985540;28;21865;-68
2022/09/03 12:12:34;;;;;;;6.30;1.90;;;23.00;59.00;;;;;;4994378;28;20134;-68
2022/09/03 12:15:08;;;;;;;6.72;2.10;;;23.10;59.20;;;;;;4985622;28;20097;-69
2022/09/03 12:18:17;;;;;;;7.00;2.25;;;23.10;59.00;;;;;;4980533;28;20042;-69
2022/09/03 12:20:33;;;;;;;10.18;2.20;;;23.10;59.00;;;;;;4983709;28;20058;-69
2022/09/03 12:23:02;;;;;;;8.20;2.40;;;23.10;58.80;;;;;;4981811;28;20035;-68
2022/09/03 12:25:28;;;;;;;7.28;2.28;;;23.10;57.90;;;;;;4985276;28;20132;-69
2022/09/03 12:27:53;;;;;;;5.72;2.13;;;23.00;58.30;;;;;;4983499;28;20073;-69
2022/09/03 12:30:22;;;;;;;8.30;2.30;;;23.00;58.20;;;;;;4998883;28;20411;-68
2022/09/03 12:32:51;;;;;;;6.30;2.00;;;23.00;57.90;;;;;;4989627;28;20026;-68
2022/09/03 12:35:21;;;;;;;10.13;2.15;;;23.00;57.80;;;;;;4981018;28;20077;-67
2022/09/03 12:37:50;;;;;;;7.22;2.30;;;23.00;58.10;;;;;;4985391;28;20022;-67
2022/09/03 12:40:27;;;;;;;7.28;2.15;;;23.00;58.30;;;;;;4997345;28;20176;-67
2022/09/03 12:42:54;;;;;;;11.70;2.67;;;23.00;58.10;;;;;;4976957;28;20337;-67
2022/09/03 12:45:23;;;;;;;9.15;2.30;;;23.00;57.30;;;;;;5003358;28;20053;-66
2022/09/03 12:47:49;;;;;;;7.68;2.28;;;23.00;57.40;;;;;;4980843;28;20011;-68
2022/09/03 12:50:22;;;;;;;7.68;1.98;;;23.00;57.30;;;;;;4980495;28;20038;-67
2022/09/03 12:52:55;;;;;;;8.38;2.40;;;23.00;57.40;;;;;;4989909;28;20015;-67
2022/09/03 12:55:44;;;;;;;8.15;2.08;;;23.00;57.20;;;;;;4987583;28;20030;-68
2022/09/03 12:58:39;;;;;;;5.45;1.92;;;23.00;57.10;;;;;;4985347;28;20073;-68
2022/09/03 13:01:21;;;;;;;8.88;2.22;;;23.00;57.50;;;;;;4985950;28;20047;-67
2022/09/03 13:03:49;;;;;;;9.90;2.40;;;23.10;57.60;;;;;;4990340;28;20117;-67
2022/09/03 13:06:18;;;;;;;7.70;2.20;;;23.10;58.00;;;;;;5006676;28;20117;-68
2022/09/03 13:08:49;;;;;;;10.60;2.00;;;23.10;57.80;;;;;;5000815;28;20240;-68
2022/09/03 13:11:17;;;;;;;7.35;2.30;;;23.10;57.80;;;;;;5012245;28;20142;-68
2022/09/03 13:13:54;;;;;;;7.65;2.40;;;23.20;58.00;;;;;;5004009;28;20029;-68